Time;durP1;ratioP1;P1;durP2;ratioP2;P2;SDS_P1;SDS_P2;PMS_P1;PMS_P2;Temp;Humidity;BMP_temperature;BMP_pressure;BME280_temperature;BME280_humidity;BME280_pressure;Samples;Min_cycle;Max_cycle;Signal;HPM_P1;HPM_P2
2022/01/02 00:01:03;;;;;;;49.13;17.23;;;;;;;9.61;74.20;100653.88;5017023;28;20043;-87
2022/01/02 00:03:55;;;;;;;48.60;18.00;;;;;;;9.56;74.39;100650.72;5032315;28;20151;-87
2022/01/02 00:06:46;;;;;;;52.65;18.23;;;;;;;9.52;74.51;100634.19;5043096;28;20523;-86
2022/01/02 00:09:34;;;;;;;42.78;18.00;;;;;;;9.56;74.92;100625.03;5007627;28;20055;-86
2022/01/02 00:12:26;;;;;;;44.53;19.33;;;;;;;9.57;74.97;100623.28;5020823;28;20117;-87
2022/01/02 00:15:13;;;;;;;48.22;19.92;;;;;;;9.56;74.85;100622.41;5029549;28;20522;-87
2022/01/02 00:18:08;;;;;;;41.38;17.80;;;;;;;9.56;74.91;100627.69;5030035;28;20055;-87
2022/01/02 00:20:55;;;;;;;48.47;20.38;;;;;;;9.55;74.95;100638.44;5020867;28;20078;-87
2022/01/02 00:23:52;;;;;;;57.72;21.08;;;;;;;9.54;74.95;100636.72;5029406;28;20040;-86
2022/01/02 00:26:43;;;;;;;47.15;18.73;;;;;;;9.51;74.94;100627.19;5056976;28;20068;-88
2022/01/02 00:29:29;;;;;;;54.22;16.85;;;;;;;9.50;74.85;100619.34;5075251;28;20043;-87
2022/01/02 00:32:16;;;;;;;44.50;16.13;;;;;;;9.49;75.04;100615.00;5032629;28;20166;-86
2022/01/02 00:35:02;;;;;;;33.88;15.88;;;;;;;9.47;75.18;100609.81;5032349;28;20139;-87
2022/01/02 00:37:48;;;;;;;41.60;14.93;;;;;;;9.47;74.84;100609.81;5034829;28;20044;-87
2022/01/02 00:40:38;;;;;;;35.28;16.08;;;;;;;9.45;74.70;100619.69;5029587;28;20053;-87
2022/01/02 00:43:33;;;;;;;39.20;18.50;;;;;;;9.39;74.71;100613.94;4993953;28;20135;-87
2022/01/02 00:46:19;;;;;;;33.55;15.00;;;;;;;9.42;75.20;100611.94;5017904;28;20051;-87
2022/01/02 00:49:04;;;;;;;44.72;15.88;;;;;;;9.42;75.18;100601.34;5030208;28;20114;-87
2022/01/02 00:51:57;;;;;;;41.75;15.63;;;;;;;9.37;74.78;100606.13;5054426;28;20044;-87
2022/01/02 00:54:45;;;;;;;46.58;16.45;;;;;;;9.39;75.12;100590.09;5035963;28;20122;-87
2022/01/02 00:57:37;;;;;;;42.97;15.68;;;;;;;9.35;75.13;100595.63;4995825;28;20055;-87
2022/01/02 01:00:22;;;;;;;33.03;15.48;;;;;;;9.38;75.08;100591.91;5031797;28;20109;-87
2022/01/02 01:03:09;;;;;;;30.98;15.13;;;;;;;9.38;74.96;100577.81;4995515;28;20070;-87
2022/01/02 01:05:55;;;;;;;31.02;14.27;;;;;;;9.36;75.11;100572.59;5053010;28;20097;-87
2022/01/02 01:08:42;;;;;;;28.23;14.32;;;;;;;9.34;75.16;100583.34;5026625;28;20399;-87
2022/01/02 01:11:28;;;;;;;29.95;13.57;;;;;;;9.34;75.14;100583.34;5035488;28;20130;-87
2022/01/02 01:14:13;;;;;;;31.08;14.40;;;;;;;9.33;75.01;100576.31;5014603;28;20048;-86
2022/01/02 01:16:58;;;;;;;30.05;13.95;;;;;;;9.32;74.84;100577.28;5026702;28;20093;-87
2022/01/02 01:19:45;;;;;;;31.42;14.50;;;;;;;9.32;74.99;100568.50;5000004;28;20059;-86
2022/01/02 01:22:30;;;;;;;26.50;12.85;;;;;;;9.31;74.84;100561.50;5043181;28;20090;-87
2022/01/02 01:25:18;;;;;;;19.20;10.38;;;;;;;9.29;74.58;100566.09;5026128;28;20055;-87
2022/01/02 01:28:04;;;;;;;24.08;11.70;;;;;;;9.28;74.75;100572.31;5049094;28;20055;-86
2022/01/02 01:30:50;;;;;;;32.85;13.18;;;;;;;9.26;74.34;100563.63;5045896;28;20431;-86
2022/01/02 01:33:35;;;;;;;32.65;12.98;;;;;;;9.23;74.63;100558.53;5019882;28;20519;-86
2022/01/02 01:36:21;;;;;;;27.33;12.35;;;;;;;9.23;74.67;100559.38;5044988;28;20048;-86
2022/01/02 01:39:06;;;;;;;34.13;12.63;;;;;;;9.21;74.60;100561.31;5043637;28;20051;-86
2022/01/02 01:41:53;;;;;;;32.10;12.23;;;;;;;9.21;74.49;100555.16;5030078;28;20046;-86
2022/01/02 01:47:34;;;;;;;30.83;13.07;;;;;;;9.18;74.54;100558.88;5030554;28;20415;-85
2022/01/02 01:50:25;;;;;;;33.38;13.60;;;;;;;9.16;74.53;100557.28;4987922;28;1179933;-85
2022/01/02 01:53:11;;;;;;;29.63;13.75;;;;;;;9.14;74.32;100565.38;5029694;28;20454;-85
2022/01/02 01:55:58;;;;;;;25.00;11.82;;;;;;;9.13;74.34;100561.00;5040106;28;20128;-86
2022/01/02 01:58:47;;;;;;;24.45;12.65;;;;;;;9.11;74.20;100552.34;5001809;28;20047;-86
2022/01/02 02:05:38;;;;;;;24.70;12.00;;;;;;;9.05;74.51;100560.69;5018638;28;20055;-86
2022/01/02 02:08:26;;;;;;;23.08;9.75;;;;;;;9.05;74.53;100558.06;5031274;28;20059;-85
2022/01/02 02:11:13;;;;;;;31.38;11.55;;;;;;;9.06;74.38;100557.13;5061550;28;20414;-85
2022/01/02 02:13:59;;;;;;;26.23;11.38;;;;;;;9.03;74.22;100557.31;5033836;28;20063;-85
2022/01/02 02:16:45;;;;;;;23.65;11.32;;;;;;;9.00;74.13;100539.81;5020603;28;20055;-85
2022/01/02 02:19:32;;;;;;;32.10;12.30;;;;;;;8.99;74.12;100540.78;5034241;28;20517;-85
2022/01/02 02:22:18;;;;;;;27.75;12.93;;;;;;;8.99;74.27;100529.34;5046763;28;20626;-85
2022/01/02 02:25:03;;;;;;;25.92;12.30;;;;;;;8.98;74.26;100520.56;5048725;28;20971;-85
2022/01/02 02:27:53;;;;;;;21.70;11.45;;;;;;;8.94;74.03;100511.13;5045098;28;20055;-85
2022/01/02 02:30:40;;;;;;;36.55;12.60;;;;;;;8.96;74.12;100513.69;5033467;28;20052;-86
2022/01/02 02:33:25;;;;;;;44.88;13.20;;;;;;;8.94;74.33;100520.88;5017470;28;20121;-86
2022/01/02 02:36:11;;;;;;;23.17;11.38;;;;;;;8.91;74.30;100520.16;5043884;28;20063;-86
2022/01/02 02:38:56;;;;;;;28.42;12.45;;;;;;;8.89;74.28;100522.03;5011986;28;20051;-85
2022/01/02 02:41:43;;;;;;;28.63;11.35;;;;;;;8.87;74.06;100525.75;5050432;28;20204;-85
2022/01/02 02:44:37;;;;;;;39.83;12.20;;;;;;;8.84;74.01;100518.03;5019697;28;20047;-85
2022/01/02 02:50:28;;;;;;;27.38;11.80;;;;;;;8.77;74.23;100520.25;5018694;28;20174;-86
2022/01/02 02:53:15;;;;;;;24.23;12.05;;;;;;;8.78;74.40;100515.84;5030066;28;20052;-86
2022/01/02 02:56:02;;;;;;;25.20;12.00;;;;;;;8.77;74.44;100508.81;5060656;28;20059;-86
2022/01/02 02:58:49;;;;;;;29.17;11.05;;;;;;;8.76;74.37;100510.63;5029170;28;20129;-86
2022/01/02 03:01:37;;;;;;;22.38;9.77;;;;;;;8.75;74.16;100510.72;5043867;28;20055;-86
2022/01/02 03:04:24;;;;;;;43.38;11.90;;;;;;;8.74;74.36;100501.09;5027798;28;20052;-86
2022/01/02 03:07:10;;;;;;;32.67;11.45;;;;;;;8.73;74.33;100505.56;5065253;28;20046;-86
2022/01/02 03:09:58;;;;;;;32.28;11.27;;;;;;;8.72;74.20;100495.06;5055652;28;20059;-86
2022/01/02 03:12:44;;;;;;;31.95;11.73;;;;;;;8.69;74.43;100486.38;5030980;28;20643;-86
2022/01/02 03:15:29;;;;;;;36.97;10.57;;;;;;;8.68;74.42;100473.25;5034345;28;20051;-86
2022/01/02 03:18:15;;;;;;;37.55;12.48;;;;;;;8.67;74.13;100484.78;5029989;28;20058;-86
2022/01/02 03:21:01;;;;;;;25.10;11.20;;;;;;;8.65;73.94;100476.09;5042389;28;20055;-86
2022/01/02 03:23:48;;;;;;;31.05;10.18;;;;;;;8.62;73.94;100471.03;5033259;28;20090;-86
2022/01/02 03:26:35;;;;;;;44.42;11.60;;;;;;;8.58;73.98;100465.09;5057637;28;20363;-86
2022/01/02 03:29:20;;;;;;;25.63;11.35;;;;;;;8.59;74.24;100455.38;5051725;28;20044;-85
2022/01/02 03:32:06;;;;;;;54.95;10.73;;;;;;;8.57;74.26;100460.75;5062282;28;20051;-86
2022/01/02 03:34:53;;;;;;;31.08;10.88;;;;;;;8.57;74.13;100462.56;5060246;28;20047;-85
2022/01/02 03:37:39;;;;;;;84.07;11.85;;;;;;;8.53;73.93;100461.09;5036354;28;20063;-85
2022/01/02 03:40:24;;;;;;;34.65;11.15;;;;;;;8.52;73.90;100467.31;5035095;28;20132;-86
2022/01/02 03:43:10;;;;;;;26.25;10.13;;;;;;;8.49;73.92;100457.81;5080140;28;20063;-86
2022/01/02 03:45:56;;;;;;;27.13;10.73;;;;;;;8.48;73.87;100454.31;5017925;28;20048;-85
2022/01/02 03:49:11;;;;;;;48.88;12.90;;;;;;;8.37;74.09;100461.25;5016736;28;20137;-85
2022/01/02 03:51:56;;;;;;;31.67;10.52;;;;;;;8.46;74.38;100450.09;5032456;28;20059;-85
2022/01/02 03:54:42;;;;;;;25.90;10.27;;;;;;;8.46;74.33;100440.34;5048731;28;20047;-86
2022/01/02 03:57:27;;;;;;;26.60;9.68;;;;;;;8.46;74.49;100448.28;5029748;28;20102;-85
2022/01/02 04:00:14;;;;;;;21.60;11.07;;;;;;;8.44;74.28;100450.19;5049964;28;20047;-86
2022/01/02 04:03:01;;;;;;;28.40;10.52;;;;;;;8.42;74.02;100448.59;5063727;28;20063;-85
2022/01/02 04:05:47;;;;;;;27.20;10.95;;;;;;;8.38;73.84;100449.75;5016752;28;20063;-86
2022/01/02 04:08:32;;;;;;;40.28;10.57;;;;;;;8.36;73.95;100449.00;5028848;28;20395;-85
2022/01/02 04:11:18;;;;;;;27.33;11.80;;;;;;;8.32;73.64;100455.44;5018422;28;20048;-86
2022/01/02 04:14:03;;;;;;;22.75;9.85;;;;;;;8.04;73.77;100450.25;5050935;28;20063;-85
2022/01/02 04:16:49;;;;;;;17.55;9.25;;;;;;;8.13;73.91;100453.22;5080254;28;20047;-85
2022/01/02 04:19:34;;;;;;;22.42;8.68;;;;;;;8.15;73.96;100438.09;5076293;28;20077;-86
2022/01/02 04:22:20;;;;;;;19.98;8.38;;;;;;;8.19;74.35;100429.00;5016069;28;20047;-86
2022/01/02 04:25:05;;;;;;;16.35;9.35;;;;;;;8.23;74.32;100411.97;5032497;28;20052;-86
2022/01/02 04:27:51;;;;;;;20.90;8.57;;;;;;;8.24;74.44;100408.34;5017608;28;20097;-85
2022/01/02 04:30:36;;;;;;;26.30;8.80;;;;;;;8.25;74.10;100397.66;5043521;28;20884;-86
2022/01/02 04:33:22;;;;;;;19.25;8.48;;;;;;;8.26;74.25;100393.22;5045244;28;20506;-85
2022/01/02 04:36:07;;;;;;;21.10;9.25;;;;;;;8.27;74.28;100393.13;5046833;28;20523;-86
2022/01/02 04:38:53;;;;;;;19.75;8.60;;;;;;;8.28;74.35;100383.38;5030788;28;20055;-86
2022/01/02 04:41:53;;;;;;;18.60;9.65;;;;;;;8.27;74.30;100387.00;4985827;28;20056;-86
2022/01/02 04:44:39;;;;;;;16.88;9.20;;;;;;;8.26;74.27;100382.63;4980684;28;20574;-85
2022/01/02 04:47:24;;;;;;;17.80;9.23;;;;;;;8.24;74.27;100388.06;5004889;28;20040;-85
2022/01/02 04:50:10;;;;;;;17.40;8.98;;;;;;;8.23;73.52;100382.84;4989766;28;20056;-86
2022/01/02 04:52:55;;;;;;;17.70;8.80;;;;;;;8.20;73.50;100383.09;5004840;28;20071;-85
2022/01/02 04:55:41;;;;;;;30.88;10.27;;;;;;;8.18;73.44;100367.31;5038886;28;20052;-86
2022/01/02 04:58:26;;;;;;;33.40;10.82;;;;;;;8.18;73.64;100379.69;4995978;28;20562;-86
2022/01/02 05:01:14;;;;;;;32.42;11.30;;;;;;;8.16;73.48;100381.59;5002944;28;20048;-85
2022/01/02 05:04:00;;;;;;;27.23;10.23;;;;;;;8.12;73.37;100383.63;4996157;28;20043;-85
2022/01/02 05:06:45;;;;;;;16.23;9.02;;;;;;;8.07;73.49;100376.97;4982334;28;20523;-86
2022/01/02 05:09:33;;;;;;;13.02;7.50;;;;;;;8.05;73.11;100375.25;4978595;28;20056;-85
2022/01/02 05:12:18;;;;;;;15.13;9.07;;;;;;;8.05;73.37;100375.25;5040924;28;20051;-86
2022/01/02 05:15:05;;;;;;;16.30;8.63;;;;;;;8.07;73.25;100369.88;5003474;28;20044;-86
2022/01/02 05:17:50;;;;;;;15.43;8.05;;;;;;;8.07;73.49;100366.38;5019009;28;20047;-85
2022/01/02 05:20:36;;;;;;;14.70;9.13;;;;;;;8.07;73.29;100363.72;5019875;28;20051;-86
2022/01/02 05:23:22;;;;;;;19.00;8.63;;;;;;;8.04;73.31;100348.91;5036689;28;20190;-86
2022/01/02 05:26:07;;;;;;;15.35;9.18;;;;;;;8.03;73.43;100342.75;5046766;28;20420;-86
2022/01/02 05:28:54;;;;;;;15.07;8.55;;;;;;;8.03;73.49;100342.75;5003353;28;20071;-86
2022/01/02 05:31:40;;;;;;;19.20;9.73;;;;;;;8.01;73.23;100346.47;5035165;28;20474;-86
2022/01/02 05:34:25;;;;;;;15.68;8.45;;;;;;;7.99;73.10;100340.47;5028569;28;20055;-86
2022/01/02 05:37:11;;;;;;;18.13;9.55;;;;;;;7.89;73.33;100337.59;5063198;28;20067;-86
2022/01/02 05:39:56;;;;;;;50.17;10.52;;;;;;;7.85;73.49;100327.34;5036528;28;20399;-86
2022/01/02 05:42:42;;;;;;;21.45;10.10;;;;;;;7.86;73.50;100334.31;5052782;28;20541;-86
2022/01/02 05:45:29;;;;;;;18.25;9.10;;;;;;;7.86;73.39;100334.31;5035634;28;20062;-85
2022/01/02 05:48:14;;;;;;;21.08;9.73;;;;;;;7.87;73.43;100342.16;5035655;28;20050;-86
2022/01/02 05:51:01;;;;;;;21.98;8.90;;;;;;;7.87;73.48;100344.78;5033742;28;20051;-86
2022/01/02 05:53:46;;;;;;;19.63;9.48;;;;;;;7.87;73.60;100338.66;5045834;28;20117;-85
2022/01/02 05:56:32;;;;;;;19.77;9.45;;;;;;;7.81;73.21;100350.47;5032383;28;20052;-86
2022/01/02 05:59:17;;;;;;;14.95;8.20;;;;;;;7.82;73.52;100331.88;5025416;28;20047;-85
2022/01/02 06:02:03;;;;;;;20.75;9.43;;;;;;;7.81;73.50;100327.56;5064345;28;20576;-85
2022/01/02 06:04:49;;;;;;;22.25;9.80;;;;;;;7.80;73.60;100328.50;5054729;28;20059;-85
2022/01/02 06:07:35;;;;;;;21.95;9.10;;;;;;;7.83;73.57;100333.56;5041430;28;20067;-85
2022/01/02 06:10:22;;;;;;;21.40;9.10;;;;;;;7.85;73.79;100327.34;5032340;28;20525;-85
2022/01/02 06:13:07;;;;;;;20.02;9.55;;;;;;;7.85;73.72;100322.06;5063239;28;20060;-85
2022/01/02 06:15:53;;;;;;;17.75;9.35;;;;;;;7.86;74.09;100323.72;5006522;28;20453;-85
2022/01/02 06:18:39;;;;;;;19.52;8.75;;;;;;;7.85;73.73;100322.91;5066234;28;20180;-85
2022/01/02 06:21:25;;;;;;;20.30;9.38;;;;;;;7.86;73.90;100324.59;5087415;27;20063;-85
2022/01/02 06:24:10;;;;;;;16.75;8.80;;;;;;;7.86;74.00;100316.66;5019532;28;20059;-85
2022/01/02 06:26:57;;;;;;;15.07;8.00;;;;;;;7.86;73.85;100327.25;5067730;28;20051;-85
2022/01/02 06:29:42;;;;;;;20.52;10.18;;;;;;;7.86;73.83;100329.91;5058884;28;20047;-85
2022/01/02 06:32:28;;;;;;;16.20;9.38;;;;;;;7.88;74.15;100321.84;5031962;28;20044;-85
2022/01/02 06:35:14;;;;;;;17.77;9.75;;;;;;;7.86;73.75;100318.44;5068331;28;20059;-85
2022/01/02 06:38:14;;;;;;;17.60;8.55;;;;;;;7.77;73.71;100312.00;5060929;28;20064;-85
2022/01/02 06:41:02;;;;;;;15.07;8.50;;;;;;;7.82;73.93;100300.16;5024687;28;20067;-85
2022/01/02 06:43:52;;;;;;;15.00;8.70;;;;;;;7.82;73.78;100310.72;5046838;28;20051;-85
2022/01/02 06:46:40;;;;;;;16.75;9.30;;;;;;;7.81;73.85;100306.41;5046193;28;20051;-85
2022/01/02 06:49:26;;;;;;;15.75;8.48;;;;;;;7.81;73.73;100305.53;5047093;28;20398;-85
2022/01/02 06:52:11;;;;;;;14.82;8.55;;;;;;;7.81;73.75;100306.41;5034773;28;20074;-85
2022/01/02 06:55:00;;;;;;;16.83;8.85;;;;;;;7.77;73.43;100307.56;5018619;28;20054;-86
2022/01/02 06:57:46;;;;;;;17.70;9.23;;;;;;;7.77;73.64;100310.22;5044350;28;20059;-85
2022/01/02 07:00:33;;;;;;;15.05;7.63;;;;;;;7.76;73.68;100308.53;5035225;28;20043;-86
2022/01/02 07:03:21;;;;;;;15.90;8.35;;;;;;;7.76;73.61;100308.53;5058752;28;20454;-85
2022/01/02 07:06:07;;;;;;;14.77;8.32;;;;;;;7.76;73.93;100307.66;5052395;28;20498;-85
2022/01/02 07:09:44;;;;;;;17.35;7.75;;;;;;;7.64;73.66;100298.78;5063015;28;20531;-85
2022/01/02 07:12:30;;;;;;;18.75;9.02;;;;;;;7.72;73.76;100291.19;5023337;28;20047;-85
2022/01/02 07:15:15;;;;;;;17.60;8.27;;;;;;;7.72;73.73;100283.25;5059874;28;20054;-85
2022/01/02 07:18:00;;;;;;;17.77;9.30;;;;;;;7.73;73.79;100281.44;5023106;28;20092;-85
2022/01/02 07:20:45;;;;;;;19.38;9.73;;;;;;;7.71;73.72;100286.84;5041655;28;20178;-85
2022/01/02 07:23:30;;;;;;;20.83;10.27;;;;;;;7.71;73.64;100291.25;5031991;28;20157;-85
2022/01/02 07:26:16;;;;;;;18.23;9.00;;;;;;;7.68;73.75;100289.69;5017830;28;20058;-85
2022/01/02 07:29:01;;;;;;;18.95;10.35;;;;;;;7.68;73.90;100291.47;5002658;28;20502;-85
2022/01/02 07:31:47;;;;;;;17.70;9.45;;;;;;;7.66;73.65;100301.31;5051062;28;20072;-85
2022/01/02 07:34:31;;;;;;;22.13;11.23;;;;;;;7.64;73.60;100304.06;5059658;28;20078;-86
2022/01/02 07:37:17;;;;;;;18.23;10.23;;;;;;;7.64;73.60;100308.53;5027764;28;20063;-86
2022/01/02 07:40:04;;;;;;;17.08;9.75;;;;;;;7.61;73.70;100305.13;5025239;28;20047;-86
2022/01/02 07:42:49;;;;;;;20.70;9.60;;;;;;;7.60;73.74;100306.06;5004377;28;20055;-86
2022/01/02 07:45:39;;;;;;;20.15;9.65;;;;;;;7.60;73.75;100297.31;5021982;28;20046;-86
2022/01/02 07:48:26;;;;;;;19.42;9.45;;;;;;;7.60;74.01;100298.13;5015934;28;20166;-86
2022/01/02 07:51:11;;;;;;;17.83;8.18;;;;;;;7.60;73.96;100289.38;5042412;28;20055;-86
2022/01/02 07:53:57;;;;;;;21.33;9.57;;;;;;;7.60;74.08;100284.94;5053994;28;20044;-86
2022/01/02 07:56:42;;;;;;;17.92;9.10;;;;;;;7.59;74.01;100277.13;5076126;28;20051;-85
2022/01/02 07:59:27;;;;;;;18.52;9.07;;;;;;;7.59;74.25;100283.25;5032525;28;20158;-85
2022/01/02 08:02:15;;;;;;;22.27;9.95;;;;;;;7.58;74.35;100276.28;5041822;28;20517;-85
2022/01/02 08:05:01;;;;;;;16.85;9.50;;;;;;;7.56;74.27;100283.47;5011285;28;20042;-86
2022/01/02 08:07:46;;;;;;;21.85;9.65;;;;;;;7.58;74.35;100293.91;5010037;28;20052;-85
2022/01/02 08:10:31;;;;;;;15.95;9.60;;;;;;;7.57;74.39;100298.34;5037081;28;20066;-85
2022/01/02 08:13:16;;;;;;;20.83;9.60;;;;;;;7.58;74.26;100293.91;5018093;28;20059;-86
2022/01/02 08:16:02;;;;;;;23.10;10.45;;;;;;;7.56;74.25;100279.97;5034745;28;20048;-86
2022/01/02 08:18:47;;;;;;;30.30;12.52;;;;;;;7.56;74.30;100275.53;5032351;28;20575;-86
2022/01/02 08:21:32;;;;;;;31.83;13.52;;;;;;;7.56;74.41;100279.97;5066588;28;20062;-86
2022/01/02 08:24:18;;;;;;;29.67;14.68;;;;;;;7.57;74.48;100285.16;5037707;28;20062;-86
2022/01/02 08:27:04;;;;;;;31.55;13.43;;;;;;;7.56;74.67;100283.47;5035630;28;20077;-86
2022/01/02 08:29:53;;;;;;;20.08;11.40;;;;;;;7.58;74.64;100285.97;5061703;28;20048;-86
2022/01/02 08:32:38;;;;;;;27.70;13.85;;;;;;;7.58;74.53;100285.97;5040681;28;20043;-85
2022/01/02 08:35:24;;;;;;;30.73;13.73;;;;;;;7.58;74.63;100273.63;5062741;28;20170;-86
2022/01/02 08:38:11;;;;;;;29.58;13.27;;;;;;;7.59;74.56;100275.31;5041295;28;20043;-85
2022/01/02 08:40:56;;;;;;;27.33;13.93;;;;;;;7.58;74.72;100271.00;5022455;28;20679;-86
2022/01/02 08:43:41;;;;;;;40.30;15.30;;;;;;;7.60;74.37;100279.63;5041915;28;20467;-85
2022/01/02 08:46:27;;;;;;;29.52;14.95;;;;;;;7.61;74.73;100275.22;5020133;28;20042;-85
2022/01/02 08:49:12;;;;;;;41.30;17.30;;;;;;;7.59;74.69;100272.69;5052664;28;20050;-85
2022/01/02 08:51:58;;;;;;;24.23;12.90;;;;;;;7.59;74.41;100274.47;5042903;28;20081;-85
2022/01/02 08:54:43;;;;;;;25.23;12.75;;;;;;;7.57;74.59;100268.44;5032871;28;20399;-85
2022/01/02 08:57:28;;;;;;;19.40;10.63;;;;;;;7.56;74.18;100266.78;5029157;28;20138;-85
2022/01/02 09:00:14;;;;;;;14.18;8.23;;;;;;;7.54;74.45;100274.78;5015868;28;20092;-85
2022/01/02 09:02:59;;;;;;;12.20;8.05;;;;;;;7.53;74.56;100262.53;5027346;28;20460;-88
2022/01/02 09:05:45;;;;;;;15.63;8.95;;;;;;;7.53;74.54;100275.75;5015276;28;20502;-89
2022/01/02 09:08:30;;;;;;;21.98;11.50;;;;;;;7.52;74.64;100271.41;5033848;28;20051;-88
2022/01/02 09:11:15;;;;;;;18.60;9.50;;;;;;;7.51;74.77;100272.38;5056093;28;20118;-86
2022/01/02 09:14:02;;;;;;;19.30;10.00;;;;;;;7.52;74.68;100278.50;5030864;28;20051;-92
2022/01/02 09:21:20;;;;;;;17.60;9.95;;;;;;;7.44;74.95;100286.09;5039828;28;20051;-91
2022/01/02 09:24:06;;;;;;;16.05;9.50;;;;;;;7.49;74.96;100281.34;5030043;28;20046;-86
2022/01/02 09:26:51;;;;;;;13.05;8.15;;;;;;;7.49;74.86;100274.25;5016168;28;20047;-92
2022/01/02 09:30:30;;;;;;;14.80;8.07;;;;;;;7.38;74.85;100284.72;5038066;28;20540;-92
2022/01/02 09:33:15;;;;;;;15.20;8.90;;;;;;;7.46;75.02;100284.22;5025796;28;20517;-91
2022/01/02 09:36:00;;;;;;;19.73;9.52;;;;;;;7.47;75.16;100289.38;5038858;28;20149;-86
2022/01/02 09:38:45;;;;;;;13.85;7.68;;;;;;;7.47;75.04;100281.44;5069038;28;20514;-87
2022/01/02 09:41:31;;;;;;;14.05;8.55;;;;;;;7.48;75.07;100283.16;5009255;28;20066;-89
2022/01/02 09:44:16;;;;;;;14.32;9.10;;;;;;;7.47;75.23;100273.50;5047572;28;20105;-88
2022/01/02 09:47:01;;;;;;;15.93;9.23;;;;;;;7.49;75.59;100279.53;5049281;28;20177;-87
2022/01/02 09:49:47;;;;;;;27.35;11.48;;;;;;;7.49;75.55;100274.25;5050653;28;20118;-87
2022/01/02 09:52:35;;;;;;;18.88;11.57;;;;;;;7.49;75.50;100287.47;5047789;28;20059;-88
2022/01/02 09:55:02;;;;;;;21.83;13.00;;;;;;;7.51;75.69;100285.56;5053381;28;20040;-84
2022/01/02 09:57:29;;;;;;;20.67;12.85;;;;;;;7.53;75.73;100273.13;5033560;28;20044;-83
2022/01/02 09:59:56;;;;;;;21.33;12.57;;;;;;;7.53;75.85;100270.47;5036901;28;20052;-83
2022/01/02 10:02:23;;;;;;;21.42;12.13;;;;;;;7.53;75.70;100265.19;5045456;28;20039;-84
2022/01/02 10:04:59;;;;;;;25.20;15.65;;;;;;;7.48;75.83;100256.72;5056523;28;20040;-83
2022/01/02 10:07:28;;;;;;;20.73;12.73;;;;;;;7.53;75.80;100270.47;5039194;28;20051;-83
2022/01/02 10:09:55;;;;;;;21.77;13.00;;;;;;;7.54;76.22;100256.28;5066404;28;20094;-83
2022/01/02 10:12:26;;;;;;;18.15;10.02;;;;;;;7.55;76.07;100254.50;5074034;28;20032;-85
2022/01/02 10:15:08;;;;;;;26.15;14.57;;;;;;;7.45;76.04;100251.63;5051277;28;20054;-84
2022/01/02 10:17:54;;;;;;;18.02;10.98;;;;;;;7.43;76.06;100235.06;5035913;28;20048;-84
2022/01/02 10:20:30;;;;;;;20.83;13.73;;;;;;;7.49;76.09;100250.47;5057670;28;20804;-84
2022/01/02 10:23:07;;;;;;;19.30;14.10;;;;;;;7.49;76.12;100255.75;5039125;28;20498;-85
2022/01/02 10:25:37;;;;;;;19.58;11.60;;;;;;;7.50;76.42;100260.09;4999902;28;20053;-85
2022/01/02 10:28:26;;;;;;;22.05;12.88;;;;;;;7.44;76.44;100267.59;5004832;28;20052;-85
2022/01/02 10:31:04;;;;;;;22.48;11.98;;;;;;;7.46;76.33;100269.19;5004540;28;20042;-85
2022/01/02 10:33:55;;;;;;;20.17;11.75;;;;;;;7.43;76.26;100257.97;4973503;28;20042;-85
2022/01/02 10:36:40;;;;;;;23.70;11.75;;;;;;;7.41;76.52;100242.25;4989762;28;20052;-85
2022/01/02 10:39:19;;;;;;;18.30;10.52;;;;;;;7.52;76.56;100215.06;4971394;28;20079;-85
2022/01/02 10:41:50;;;;;;;19.80;11.55;;;;;;;7.48;76.85;100201.25;5021488;28;20041;-84
2022/01/02 10:44:18;;;;;;;22.60;12.57;;;;;;;7.52;76.94;100173.63;5004540;28;20048;-83
2022/01/02 10:47:24;;;;;;;25.95;12.48;;;;;;;7.39;77.31;100171.00;5024062;28;20056;-84
2022/01/02 10:50:17;;;;;;;22.13;12.60;;;;;;;7.39;77.36;100181.56;4951061;28;20048;-86
2022/01/02 10:52:47;;;;;;;22.02;12.10;;;;;;;7.51;76.95;100193.09;5034472;28;20088;-85
2022/01/02 10:55:22;;;;;;;20.55;11.43;;;;;;;7.53;77.33;100193.84;4995618;28;20049;-84
2022/01/02 10:57:51;;;;;;;22.13;12.00;;;;;;;7.55;77.29;100189.25;5048631;28;20047;-84
2022/01/02 11:00:21;;;;;;;24.58;13.98;;;;;;;7.58;77.40;100190.84;5035539;28;20044;-84
2022/01/02 11:02:49;;;;;;;23.90;13.27;;;;;;;7.60;77.47;100192.44;5033838;28;20453;-84
2022/01/02 11:05:21;;;;;;;29.35;16.58;;;;;;;7.61;77.90;100183.56;5029811;28;20649;-86
2022/01/02 11:07:51;;;;;;;31.90;16.50;;;;;;;7.64;78.06;100179.03;5066040;28;20051;-83
2022/01/02 11:10:22;;;;;;;26.95;15.88;;;;;;;7.65;78.26;100178.88;5045938;28;20048;-82
2022/01/02 11:12:51;;;;;;;25.15;13.60;;;;;;;7.64;78.10;100184.31;5026582;28;20650;-83
2022/01/02 11:15:23;;;;;;;26.88;14.75;;;;;;;7.65;78.11;100183.34;5036303;28;20067;-82
2022/01/02 11:17:51;;;;;;;24.63;12.63;;;;;;;7.65;78.17;100165.69;5032617;28;20545;-83
2022/01/02 11:20:23;;;;;;;24.48;13.68;;;;;;;7.67;78.31;100158.50;5032690;28;20459;-82
2022/01/02 11:22:59;;;;;;;24.80;13.85;;;;;;;7.65;78.20;100163.03;5078502;28;20046;-83
2022/01/02 11:25:28;;;;;;;20.83;12.70;;;;;;;7.66;78.35;100146.25;5045520;28;20142;-83
2022/01/02 11:28:00;;;;;;;23.98;12.45;;;;;;;7.67;78.38;100137.34;5078520;28;20086;-83
2022/01/02 11:30:30;;;;;;;29.10;14.43;;;;;;;7.66;78.30;100130.38;5046076;28;20049;-85
2022/01/02 11:33:12;;;;;;;34.42;17.38;;;;;;;7.61;78.71;100137.78;5038930;28;20045;-82
2022/01/02 11:35:44;;;;;;;33.08;16.45;;;;;;;7.65;78.83;100136.59;5042759;28;20106;-82
2022/01/02 11:38:12;;;;;;;31.45;16.52;;;;;;;7.71;79.00;100137.97;5062682;28;20043;-82
2022/01/02 11:40:58;;;;;;;28.38;14.85;;;;;;;7.61;79.16;100137.78;5052890;28;20045;-82
2022/01/02 11:43:35;;;;;;;29.05;15.05;;;;;;;7.65;79.13;100130.47;5047219;28;20135;-81
2022/01/02 11:46:25;;;;;;;28.40;14.88;;;;;;;7.60;79.18;100131.63;5038171;28;20048;-83
2022/01/02 11:49:05;;;;;;;32.30;17.35;;;;;;;7.64;79.17;100123.53;5006574;28;20059;-82
2022/01/02 11:51:48;;;;;;;35.80;19.73;;;;;;;7.63;79.43;100138.50;5089150;27;20032;-82
2022/01/02 11:54:31;;;;;;;42.17;22.13;;;;;;;7.64;79.41;100145.50;5031035;28;20068;-82
2022/01/02 11:57:04;;;;;;;36.40;20.40;;;;;;;7.73;79.43;100142.19;5049320;28;20511;-82
2022/01/02 11:59:39;;;;;;;34.63;17.70;;;;;;;7.67;79.66;100136.50;5043461;28;20029;-81
2022/01/02 12:02:08;;;;;;;32.25;16.08;;;;;;;7.73;79.48;100130.75;5051861;28;20514;-81
2022/01/02 12:05:02;;;;;;;29.80;16.48;;;;;;;7.66;79.89;100140.94;5046148;28;20124;-83
2022/01/02 12:07:35;;;;;;;28.88;15.93;;;;;;;7.76;79.70;100151.69;5040346;28;20053;-84
2022/01/02 12:10:14;;;;;;;32.58;17.13;;;;;;;7.72;79.92;100152.88;5059956;28;20438;-82
2022/01/02 12:13:22;;;;;;;31.40;16.10;;;;;;;7.70;80.04;100149.50;5075235;28;20045;-82
2022/01/02 12:15:51;;;;;;;31.80;15.63;;;;;;;7.77;80.04;100125.16;5012096;28;20040;-82
2022/01/02 12:18:29;;;;;;;22.00;13.23;;;;;;;7.78;79.84;100110.97;5065998;28;20051;-81
2022/01/02 12:21:00;;;;;;;23.27;13.25;;;;;;;7.79;79.69;100115.31;5012942;28;20067;-82
2022/01/02 12:23:29;;;;;;;25.60;13.57;;;;;;;7.80;79.53;100113.50;5079677;28;20502;-82
2022/01/02 12:26:04;;;;;;;32.25;14.45;;;;;;;7.77;80.02;100101.38;5029622;28;20048;-82
2022/01/02 12:28:38;;;;;;;29.00;16.67;;;;;;;7.73;79.62;100099.88;5059619;28;20514;-82
2022/01/02 12:31:06;;;;;;;30.88;16.73;;;;;;;7.77;79.93;100100.53;5047143;28;20036;-82
2022/01/02 12:33:35;;;;;;;27.48;16.58;;;;;;;7.76;79.83;100089.13;5073640;28;20480;-82
2022/01/02 12:36:12;;;;;;;29.35;16.95;;;;;;;7.77;79.82;100089.94;5013091;28;20048;-81
2022/01/02 12:38:53;;;;;;;25.67;15.38;;;;;;;7.71;79.94;100091.25;5035324;28;20066;-81
2022/01/02 12:41:24;;;;;;;26.85;15.07;;;;;;;7.75;80.00;100086.56;5031686;28;20046;-81
2022/01/02 12:43:56;;;;;;;26.20;14.35;;;;;;;7.77;80.23;100082.84;5067060;28;20094;-81
2022/01/02 12:46:41;;;;;;;23.77;13.13;;;;;;;7.71;80.27;100074.53;5035977;28;20831;-82
2022/01/02 12:49:25;;;;;;;25.70;14.07;;;;;;;7.70;80.23;100067.56;5022388;28;20144;-82
2022/01/02 12:51:55;;;;;;;23.67;14.48;;;;;;;7.81;80.30;100062.31;5062998;28;20048;-84